Time;durP1;ratioP1;P1;durP2;ratioP2;P2;SDS_P1;SDS_P2;PMS_P1;PMS_P2;Temp;Humidity;BMP_temperature;BMP_pressure;BME280_temperature;BME280_humidity;BME280_pressure;Samples;Min_cycle;Max_cycle;Signal;HPM_P1;HPM_P2
2022/11/17 00:00:38;;;;;;;;;5.25;3.00;;;;;13.01;98.02;98112.81;5011450;28;45452;-79
2022/11/17 00:03:07;;;;;;;;;6.25;5.25;;;;;12.95;97.97;98086.50;5011395;28;45569;-80
2022/11/17 00:05:38;;;;;;;;;6.75;5.75;;;;;13.14;96.48;98117.81;5011587;28;46007;-80
2022/11/17 00:08:21;;;;;;;;;4.75;4.75;;;;;13.09;96.28;98110.88;5009787;28;45947;-79
2022/11/17 00:10:58;;;;;;;;;9.00;6.00;;;;;13.01;95.80;98083.78;4991639;28;45425;-80
2022/11/17 00:16:17;;;;;;;;;5.25;4.00;;;;;13.20;94.62;98103.66;4994908;28;45793;-80
2022/11/17 00:21:49;;;;;;;;;6.00;4.75;;;;;13.24;93.43;98093.94;4995481;28;45514;-79
2022/11/17 00:24:23;;;;;;;;;4.75;3.25;;;;;13.16;93.12;98087.00;4995635;28;45395;-82
2022/11/17 00:27:01;;;;;;;;;5.75;3.75;;;;;13.30;92.26;98114.91;4994882;28;45559;-83
2022/11/17 00:29:42;;;;;;;;;3.25;3.25;;;;;13.26;92.86;98114.13;4994833;28;45914;-83
2022/11/17 00:35:23;;;;;;;;;5.00;4.25;;;;;13.23;91.39;98108.91;4995548;28;45454;-82
2022/11/17 00:41:13;;;;;;;;;4.00;4.00;;;;;13.29;89.66;98114.03;4994533;28;45947;-83
2022/11/17 00:44:17;;;;;;;;;8.00;5.00;;;;;13.36;87.72;98150.00;4965516;28;46079;-84
2022/11/17 00:47:00;;;;;;;;;9.00;4.50;;;;;13.30;88.10;98109.63;4994331;28;45497;-83
2022/11/17 00:49:32;;;;;;;;;7.50;4.50;;;;;13.32;88.21;98115.78;4993509;28;45732;-82
2022/11/17 00:52:03;;;;;;;;;4.50;3.50;;;;;13.33;87.27;98121.00;4994879;28;45549;-83
2022/11/17 00:55:01;;;;;;;;;3.75;3.00;;;;;13.36;87.78;98130.66;4994738;28;45514;-82
2022/11/17 00:57:41;;;;;;;;;5.00;3.00;;;;;13.39;87.38;98126.16;4994827;28;45594;-82
2022/11/17 01:00:11;;;;;;;;;4.75;2.00;;;;;13.32;86.73;98108.72;4994537;28;46003;-83
2022/11/17 01:02:55;;;;;;;;;4.75;2.75;;;;;13.42;87.22;98136.69;4994093;28;45988;-83
2022/11/17 01:05:31;;;;;;;;;6.50;3.00;;;;;13.48;86.70;98142.72;4994989;28;45566;-82
2022/11/17 01:08:00;;;;;;;;;4.00;2.75;;;;;13.41;85.75;98134.06;4994016;28;45738;-83
2022/11/17 01:10:42;;;;;;;;;3.00;2.50;;;;;13.35;85.69;98128.91;5014342;28;45535;-83
2022/11/17 01:13:08;;;;;;;;;4.00;3.00;;;;;13.43;84.52;98127.84;5014319;28;45991;-83
2022/11/17 01:15:34;;;;;;;;;2.25;1.25;;;;;13.37;84.73;98122.69;5013603;28;45615;-83
2022/11/17 01:18:15;;;;;;;;;4.25;2.75;;;;;13.39;85.00;98114.75;5013922;28;45834;-83
2022/11/17 01:20:51;;;;;;;;;5.00;3.00;;;;;13.34;84.36;98122.75;5013988;28;46261;-83
2022/11/17 01:23:19;;;;;;;;;5.00;4.00;;;;;13.36;84.66;98133.28;5013991;28;45866;-84
2022/11/17 01:26:01;;;;;;;;;2.25;1.00;;;;;13.33;85.19;98130.69;5013999;28;45416;-83
2022/11/17 01:28:46;;;;;;;;;3.00;2.25;;;;;13.40;84.21;98153.44;5014474;28;45304;-84
2022/11/17 01:34:45;;;;;;;;;1.75;0.75;;;;;13.21;83.78;98142.31;4932874;28;45610;-83
2022/11/17 01:37:20;;;;;;;;;2.00;1.50;;;;;13.34;83.41;98187.81;5005339;28;45501;-83
2022/11/17 01:39:52;;;;;;;;;2.00;2.00;;;;;13.41;82.95;98194.75;5012679;28;45664;-83
2022/11/17 01:42:32;;;;;;;;;2.25;1.25;;;;;13.35;82.87;98193.09;5014184;28;46402;-83
2022/11/17 01:45:22;;;;;;;;;3.00;2.00;;;;;13.48;83.26;98203.41;5013773;28;45928;-83
2022/11/17 01:48:12;;;;;;;;;2.25;1.50;;;;;13.50;81.36;98201.66;5013278;28;45578;-83
2022/11/17 01:51:03;;;;;;;;;2.00;0.00;;;;;13.44;81.50;98197.31;5028845;28;45338;-83
2022/11/17 01:53:37;;;;;;;;;2.00;1.75;;;;;13.53;81.09;98204.22;5012040;28;46900;-84
2022/11/17 01:56:20;;;;;;;;;;;;;;;;;;;;;
2022/11/17 01:59:04;;;;;;;;;2.25;2.00;;;;;13.58;81.72;98199.72;5012265;28;70428;-83
2022/11/17 02:04:43;;;;;;;;;2.00;1.00;;;;;13.46;80.85;98192.03;5009594;28;45989;-83
2022/11/17 02:07:27;;;;;;;;;2.00;1.00;;;;;13.44;80.87;98192.03;5012048;28;46034;-83
2022/11/17 02:10:07;;;;;;;;;1.50;0.00;;;;;13.44;80.59;98197.31;4996364;28;45470;-84
2022/11/17 02:12:57;;;;;;;;;1.00;1.00;;;;;13.53;81.49;98228.81;4993678;28;45418;-83
2022/11/17 02:15:34;;;;;;;;;2.50;2.00;;;;;13.53;81.20;98230.59;4992454;28;46036;-80
2022/11/17 02:18:06;;;;;;;;;2.75;1.50;;;;;13.54;79.88;98241.13;4993177;28;45360;-83
2022/11/17 02:21:10;;;;;;;;;1.25;1.25;;;;;13.53;80.74;98233.22;4993770;28;45422;-81
2022/11/17 02:24:18;;;;;;;;;2.25;1.00;;;;;13.51;80.54;98243.81;4991449;28;45732;-79
2022/11/17 02:27:47;;;;;;;;;1.25;1.25;;;;;13.40;80.58;98228.19;4992970;28;46043;-81
2022/11/17 02:30:54;;;;;;;;;1.00;0.00;;;;;13.48;80.12;98240.38;4970273;28;45838;-81
2022/11/17 02:33:38;;;;;;;;;2.50;1.50;;;;;13.48;79.42;98232.44;4993770;28;45496;-82
2022/11/17 02:36:30;;;;;;;;;1.50;0.00;;;;;13.35;79.71;98216.84;4992826;28;45587;-82
2022/11/17 02:39:11;;;;;;;;;2.00;1.00;;;;;13.47;79.85;98236.84;4992577;28;45363;-83
2022/11/17 02:41:46;;;;;;;;;3.00;2.00;;;;;13.47;80.18;98249.19;4992667;28;45961;-83
2022/11/17 02:44:35;;;;;;;;;1.50;1.50;;;;;13.47;78.34;98260.59;4993622;28;45561;-82
2022/11/17 02:47:27;;;;;;;;;1.25;1.00;;;;;13.49;79.40;98242.09;4992602;28;45430;-80
2022/11/17 02:50:21;;;;;;;;;2.00;1.00;;;;;13.38;80.10;98240.50;4992731;28;45603;-82
2022/11/17 02:52:53;;;;;;;;;3.25;2.00;;;;;13.37;80.44;98246.69;4992461;28;45852;-83
2022/11/17 02:55:26;;;;;;;;;2.75;1.75;;;;;13.50;80.67;98264.97;4993380;28;45691;-84
2022/11/17 02:58:18;;;;;;;;;2.00;1.25;;;;;13.30;80.30;98234.53;4992895;28;45864;-84
2022/11/17 03:01:33;;;;;;;;;1.00;0.75;;;;;13.47;79.09;98257.97;4991784;28;45910;-82
2022/11/17 03:04:13;;;;;;;;;3.00;1.75;;;;;13.46;79.54;98274.69;4989252;28;46254;-83
2022/11/17 03:07:22;;;;;;;;;0.25;0.25;;;;;13.46;79.35;98271.19;4992459;28;45716;-83
2022/11/17 03:10:16;;;;;;;;;1.00;0.25;;;;;13.30;78.31;98246.81;4991046;28;45499;-83
2022/11/17 03:13:29;;;;;;;;;0.75;0.00;;;;;13.40;78.69;98296.78;5010697;28;47763;-84
2022/11/17 03:16:29;;;;;;;;;2.00;1.75;;;;;13.34;77.82;98283.66;4992528;28;45369;-83
2022/11/17 03:19:17;;;;;;;;;1.00;0.75;;;;;13.28;78.04;98278.50;5012206;28;45900;-81
2022/11/17 03:22:07;;;;;;;;;1.75;0.00;;;;;13.23;78.11;98287.38;5011924;28;45462;-81
2022/11/17 03:24:49;;;;;;;;;1.50;0.75;;;;;13.17;78.55;98296.22;5012189;28;46042;-84
2022/11/17 03:27:39;;;;;;;;;0.00;0.00;;;;;13.05;78.39;98293.75;5012666;28;45886;-83
2022/11/17 03:30:29;;;;;;;;;0.00;0.00;;;;;13.04;78.42;98290.25;5012075;28;45484;-83
2022/11/17 03:33:05;;;;;;;;;0.75;0.25;;;;;13.05;77.85;98317.50;5011826;28;45446;-83
2022/11/17 03:35:42;;;;;;;;;0.75;0.75;;;;;13.03;76.83;98306.09;5012124;28;45438;-83
2022/11/17 03:38:19;;;;;;;;;1.00;1.00;;;;;13.14;77.04;98326.16;5012012;28;45901;-82
2022/11/17 03:44:06;;;;;;;;;2.00;0.00;;;;;13.23;76.22;98342.78;5011854;28;45413;-83
2022/11/17 03:46:41;;;;;;;;;1.75;0.00;;;;;13.21;75.80;98331.34;5010190;28;46083;-83
2022/11/17 03:49:37;;;;;;;;;0.00;0.00;;;;;13.18;76.07;98342.81;5012146;28;45883;-83
2022/11/17 03:52:09;;;;;;;;;0.00;0.00;;;;;13.05;76.12;98323.66;5012004;28;45605;-83
2022/11/17 03:54:42;;;;;;;;;1.00;0.00;;;;;13.13;76.68;98345.50;5011816;28;45482;-83
2022/11/17 03:57:45;;;;;;;;;0.00;0.00;;;;;13.18;76.80;98353.34;5012085;28;46175;-83
2022/11/17 04:00:18;;;;;;;;;1.00;0.00;;;;;13.18;76.76;98363.91;5011505;28;45874;-82
2022/11/17 04:02:57;;;;;;;;;1.00;0.00;;;;;13.10;76.28;98360.50;5011559;28;45646;-83
2022/11/17 04:05:29;;;;;;;;;4.00;1.00;;;;;13.02;76.20;98351.84;5012090;28;45485;-84
2022/11/17 04:08:09;;;;;;;;;0.50;0.00;;;;;13.21;75.70;98384.97;5010200;28;46066;-84
2022/11/17 04:17:03;;;;;;;;;0.25;0.00;;;;;13.10;76.10;98365.75;4991145;28;45846;-83
2022/11/17 04:19:55;;;;;;;;;0.00;0.00;;;;;13.16;76.29;98384.16;4991562;28;45455;-84
2022/11/17 04:22:26;;;;;;;;;0.50;0.00;;;;;13.25;76.11;98406.91;4991321;28;45831;-84
2022/11/17 04:25:01;;;;;;;;;0.50;0.50;;;;;13.18;75.92;98406.09;4991732;28;45831;-83
2022/11/17 04:30:20;;;;;;;;;0.00;0.00;;;;;13.12;74.92;98408.84;4991902;28;45316;-82
2022/11/17 04:32:53;;;;;;;;;1.00;0.00;;;;;13.02;74.62;98389.63;4989066;28;45813;-83
2022/11/17 04:35:35;;;;;;;;;;;;;;;;;;;;;
2022/11/17 04:38:06;;;;;;;;;0.00;0.00;;;;;13.15;74.37;98408.78;4990614;28;69686;-81
2022/11/17 04:41:52;;;;;;;;;0.50;0.50;;;;;13.12;75.31;98422.03;4991144;28;46440;-84
2022/11/17 04:43:35;;;;;;;;;1.00;0.00;;;;;13.11;74.72;98407.09;4990698;28;45645;-84
2022/11/17 04:46:13;;;;;;;;;0.50;0.00;;;;;13.23;74.64;98441.25;4991134;28;46212;-82
2022/11/17 04:48:44;;;;;;;;;0.00;0.00;;;;;13.21;74.79;98436.84;4991521;28;45665;-79
2022/11/17 04:51:19;;;;;;;;;2.00;1.00;;;;;13.17;74.62;98425.47;4991365;28;46948;-83
2022/11/17 04:54:07;;;;;;;;;0.75;0.75;;;;;13.22;73.96;98441.28;4991119;28;45883;-84
2022/11/17 04:56:46;;;;;;;;;1.00;0.00;;;;;13.23;74.39;98457.06;4991361;28;45393;-84
2022/11/17 04:59:30;;;;;;;;;0.00;0.00;;;;;13.12;74.34;98440.47;4994088;28;45463;-82
2022/11/17 05:02:26;;;;;;;;;1.50;1.00;;;;;13.18;74.58;98474.69;4994075;28;46232;-81
2022/11/17 05:08:14;;;;;;;;;0.00;0.00;;;;;13.09;74.75;98451.94;4994979;28;45748;-84
2022/11/17 05:13:57;;;;;;;;;1.00;0.00;;;;;13.10;74.30;98448.41;4982422;28;46466;-81
2022/11/17 05:20:25;;;;;;;;;0.50;0.50;;;;;13.22;75.19;98479.06;5014757;28;45600;-83
2022/11/17 05:26:06;;;;;;;;;1.00;0.00;;;;;13.16;74.27;98487.91;5012331;28;45467;-80
2022/11/17 05:29:01;;;;;;;;;0.00;0.00;;;;;13.10;74.85;98500.25;5011893;28;45607;-83
2022/11/17 05:31:30;;;;;;;;;1.25;1.00;;;;;13.14;74.67;98502.84;4991155;28;45430;-82
2022/11/17 05:34:00;;;;;;;;;1.00;1.00;;;;;13.16;74.50;98503.72;4994258;28;45551;-83
2022/11/17 05:36:38;;;;;;;;;0.25;0.25;;;;;13.10;75.07;98487.09;4994031;28;45684;-84
2022/11/17 05:39:37;;;;;;;;;2.75;1.00;;;;;13.11;75.31;98510.81;4994081;28;45993;-83
2022/11/17 05:42:25;;;;;;;;;1.00;1.00;;;;;12.97;75.58;98485.50;4994081;28;45430;-84
2022/11/17 05:45:19;;;;;;;;;1.00;0.75;;;;;13.13;75.30;98524.84;4992360;28;45519;-78
2022/11/17 05:48:03;;;;;;;;;0.00;0.00;;;;;13.09;75.34;98525.78;4992938;28;45483;-79
2022/11/17 05:50:39;;;;;;;;;0.00;0.00;;;;;12.89;75.05;98491.72;5004508;28;45604;-80
2022/11/17 05:53:13;;;;;;;;;1.00;0.00;;;;;13.07;74.90;98522.28;5012573;28;45953;-84
2022/11/17 05:55:39;;;;;;;;;0.75;0.75;;;;;13.13;75.28;98540.66;5010494;28;45639;-84
2022/11/17 05:58:33;;;;;;;;;3.75;2.00;;;;;13.14;74.81;98542.41;5001783;28;46628;-82
2022/11/17 06:01:05;;;;;;;;;1.75;1.00;;;;;13.17;75.19;98552.06;5005274;28;45899;-84
2022/11/17 06:04:06;;;;;;;;;1.50;1.25;;;;;12.97;75.37;98533.84;5010148;28;45718;-83
2022/11/17 06:06:48;;;;;;;;;2.00;1.00;;;;;12.98;75.54;98559.31;5000824;28;45548;-80
2022/11/17 06:09:16;;;;;;;;;1.00;0.00;;;;;12.89;75.58;98539.16;5000873;28;46268;-84
2022/11/17 06:12:11;;;;;;;;;1.00;0.00;;;;;12.88;76.06;98553.25;4992858;28;45920;-85
2022/11/17 06:17:46;;;;;;;;;3.00;1.00;;;;;13.02;76.23;98587.38;4995108;28;45556;-83
2022/11/17 06:20:26;;;;;;;;;0.00;0.00;;;;;12.87;75.79;98572.59;5012821;28;46446;-81
2022/11/17 06:23:02;;;;;;;;;4.25;2.75;;;;;12.85;76.10;98562.94;5012563;28;45514;-83
2022/11/17 06:25:51;;;;;;;;;2.00;0.50;;;;;12.77;75.93;98562.16;5012791;28;45962;-81
2022/11/17 06:28:29;;;;;;;;;1.75;0.00;;;;;12.69;76.16;98553.44;5010040;28;45696;-82
2022/11/17 06:31:28;;;;;;;;;1.00;1.00;;;;;12.80;75.99;98594.63;5012089;28;46318;-83
2022/11/17 06:34:23;;;;;;;;;0.00;0.00;;;;;12.61;76.51;98571.94;5010564;28;45459;-83
2022/11/17 06:37:10;;;;;;;;;;;;;;;;;;;;;
2022/11/17 06:39:59;;;;;;;;;1.25;0.25;;;;;12.56;77.26;98594.81;5011072;28;70098;-83
2022/11/17 06:45:55;;;;;;;;;0.75;0.25;;;;;12.68;77.21;98599.13;5012378;28;45922;-81
2022/11/17 06:48:47;;;;;;;;;0.50;0.50;;;;;12.69;77.13;98596.47;5012013;28;45462;-81
2022/11/17 06:51:26;;;;;;;;;1.25;0.50;;;;;12.74;76.70;98599.06;5012779;28;45342;-80
2022/11/17 06:53:55;;;;;;;;;2.25;1.75;;;;;12.68;77.13;98596.50;5005943;28;45961;-78
2022/11/17 06:56:36;;;;;;;;;3.00;1.00;;;;;12.63;76.77;98593.91;5000319;28;45863;-79
2022/11/17 06:59:33;;;;;;;;;1.25;0.50;;;;;12.48;77.39;98583.50;5012114;28;45443;-81
2022/11/17 07:02:04;;;;;;;;;1.00;0.00;;;;;12.42;77.19;98587.06;5008444;28;45536;-83
2022/11/17 07:04:51;;;;;;;;;1.50;0.50;;;;;12.54;77.04;98607.16;5003562;28;46173;-81
2022/11/17 07:07:33;;;;;;;;;1.00;0.00;;;;;12.51;77.35;98612.44;4995558;28;45674;-81
2022/11/17 07:10:36;;;;;;;;;1.00;1.00;;;;;12.46;77.67;98623.00;5022780;28;45492;-79
2022/11/17 07:13:33;;;;;;;;;1.00;1.00;;;;;12.51;77.59;98620.34;5005775;28;45784;-83
2022/11/17 07:16:06;;;;;;;;;2.50;1.00;;;;;12.45;77.59;98601.94;4995571;28;45921;-82
2022/11/17 07:18:58;;;;;;;;;1.25;1.00;;;;;12.44;77.74;98595.81;5009279;28;45438;-78
2022/11/17 07:25:54;;;;;;;;;1.75;1.00;;;;;12.68;77.57;98625.50;4909571;28;45431;-81
2022/11/17 07:28:36;;;;;;;;;1.25;1.00;;;;;12.44;77.71;98580.00;4889165;29;46529;-79
2022/11/17 07:31:29;;;;;;;;;3.50;1.75;;;;;12.81;77.48;98628.03;4892530;29;46044;-79
2022/11/17 07:34:41;;;;;;;;;0.50;0.00;;;;;12.77;76.95;98613.13;4981522;28;45520;-83
2022/11/17 07:37:16;;;;;;;;;3.00;2.25;;;;;12.92;77.66;98641.09;5011603;28;45549;-83
2022/11/17 07:40:01;;;;;;;;;2.00;1.00;;;;;12.88;77.03;98631.47;5007310;28;45659;-82
2022/11/17 07:42:35;;;;;;;;;2.00;1.50;;;;;12.92;77.54;98630.56;5005600;28;45455;-82
2022/11/17 07:45:30;;;;;;;;;3.00;2.00;;;;;13.07;77.11;98648.88;4991606;28;45419;-79
2022/11/17 07:48:39;;;;;;;;;1.00;1.00;;;;;13.12;77.07;98644.44;4991473;28;45656;-83
2022/11/17 07:51:51;;;;;;;;;5.75;3.00;;;;;13.17;77.11;98653.16;4949866;28;45686;-81
2022/11/17 07:54:20;;;;;;;;;5.00;3.00;;;;;13.19;77.04;98639.97;4992179;28;45458;-84
2022/11/17 07:57:05;;;;;;;;;2.75;1.00;;;;;13.21;76.84;98640.84;4991102;28;45831;-83
2022/11/17 08:02:42;;;;;;;;;1.00;1.00;;;;;13.30;76.69;98650.44;4977237;28;45888;-79
2022/11/17 08:05:30;;;;;;;;;1.25;1.00;;;;;13.31;76.60;98658.34;4991680;28;45531;-83
2022/11/17 08:08:13;;;;;;;;;3.50;1.00;;;;;13.17;76.76;98654.94;4992958;28;45484;-79
2022/11/17 08:10:53;;;;;;;;;1.00;0.00;;;;;13.15;76.76;98643.50;5010785;28;45440;-82
2022/11/17 08:13:27;;;;;;;;;0.00;0.00;;;;;13.23;77.01;98662.81;5010713;28;46459;-83
2022/11/17 08:16:08;;;;;;;;;0.00;0.00;;;;;13.14;77.31;98649.69;5010667;28;45521;-83
2022/11/17 08:19:03;;;;;;;;;1.00;0.00;;;;;13.26;76.92;98670.72;5010440;28;45768;-83
2022/11/17 08:21:35;;;;;;;;;1.75;1.00;;;;;13.29;76.97;98672.44;5011202;28;45569;-83
2022/11/17 08:24:14;;;;;;;;;1.75;1.00;;;;;13.16;77.39;98650.56;4994378;28;45917;-83
2022/11/17 08:27:09;;;;;;;;;2.00;1.00;;;;;13.31;77.01;98668.03;4994710;28;45868;-85
2022/11/17 08:29:50;;;;;;;;;1.00;1.00;;;;;13.18;76.95;98649.63;5009783;28;45834;-84
2022/11/17 08:32:31;;;;;;;;;1.00;1.00;;;;;13.33;76.66;98674.16;5010477;28;45513;-82
2022/11/17 08:35:20;;;;;;;;;1.00;1.00;;;;;13.32;76.63;98662.72;5014231;28;45449;-81
2022/11/17 08:37:49;;;;;;;;;0.00;0.00;;;;;13.30;76.90;98663.63;5014030;28;45954;-84
2022/11/17 08:40:50;;;;;;;;;1.75;1.00;;;;;13.21;77.25;98645.25;5014388;28;45528;-82
2022/11/17 08:43:21;;;;;;;;;3.00;2.00;;;;;13.22;77.46;98637.34;5014205;28;45447;-83
2022/11/17 08:45:55;;;;;;;;;2.00;1.00;;;;;13.34;76.90;98658.31;5013541;28;46337;-82
2022/11/17 08:48:45;;;;;;;;;;;;;;;;;;;;;
2022/11/17 08:51:49;;;;;;;;;2.00;2.00;;;;;13.28;78.24;98668.94;5013322;28;68711;-83
2022/11/17 08:54:33;;;;;;;;;2.00;1.00;;;;;13.30;77.99;98674.19;5014080;28;45608;-84
2022/11/17 08:57:07;;;;;;;;;4.00;2.25;;;;;13.27;78.48;98654.00;5013961;28;45960;-83
2022/11/17 09:03:13;;;;;;;;;3.00;2.00;;;;;13.26;78.84;98646.09;4974707;28;46101;-84
2022/11/17 09:05:48;;;;;;;;;3.75;3.00;;;;;13.43;80.42;98679.31;5012785;28;45452;-79
2022/11/17 09:09:03;;;;;;;;;;;;;;;;;;;;;
2022/11/17 09:12:07;;;;;;;;;3.25;2.00;;;;;13.23;81.20;98689.19;4992987;28;73140;-82
2022/11/17 09:14:43;;;;;;;;;4.00;3.00;;;;;13.31;81.88;98683.88;4966353;28;45903;-83
2022/11/17 09:20:26;;;;;;;;;2.25;2.25;;;;;13.60;82.36;98657.19;5013842;28;45563;-82
2022/11/17 09:26:17;;;;;;;;;3.00;2.00;;;;;13.76;81.83;98658.75;5000765;28;45480;-81
2022/11/17 09:28:54;;;;;;;;;4.25;4.00;;;;;13.77;82.19;98644.63;5013630;28;45844;-83
2022/11/17 09:31:34;;;;;;;;;3.50;2.00;;;;;13.92;81.32;98657.66;5014316;28;45568;-82
2022/11/17 09:34:47;;;;;;;;;6.00;3.75;;;;;14.17;81.82;98671.41;5013219;28;45348;-83
2022/11/17 09:40:41;;;;;;;;;3.00;1.50;;;;;13.87;80.89;98651.56;5002715;28;45565;-82
2022/11/17 09:43:55;;;;;;;;;3.00;2.00;;;;;13.88;81.18;98697.31;5013864;28;46754;-83
2022/11/17 09:46:30;;;;;;;;;1.75;0.50;;;;;13.74;80.84;98697.47;5003735;28;45918;-82
2022/11/17 09:49:06;;;;;;;;;1.00;1.00;;;;;13.76;81.39;98705.41;5014001;28;45459;-82
2022/11/17 09:51:36;;;;;;;;;3.00;2.00;;;;;13.77;80.81;98691.28;5013884;28;45609;-82
2022/11/17 09:54:19;;;;;;;;;2.00;1.25;;;;;13.57;80.81;98679.19;5012119;28;47576;-81
2022/11/17 09:56:46;;;;;;;;;3.00;1.75;;;;;13.57;80.82;98684.47;5013601;28;45451;-81
2022/11/17 09:59:16;;;;;;;;;4.50;3.00;;;;;13.57;80.90;98689.75;5012773;28;45497;-83
2022/11/17 10:01:42;;;;;;;;;0.75;0.75;;;;;13.74;80.74;98704.50;5010075;28;46130;-83
2022/11/17 10:04:11;;;;;;;;;3.00;2.00;;;;;13.84;80.49;98709.69;5012219;28;45736;-82
2022/11/17 10:06:37;;;;;;;;;2.00;1.00;;;;;13.90;79.93;98728.09;5011592;28;45991;-82
2022/11/17 10:09:10;;;;;;;;;3.75;2.00;;;;;13.91;80.00;98719.28;5013186;28;45776;-79
2022/11/17 10:11:38;;;;;;;;;2.50;2.00;;;;;13.88;79.77;98724.59;5013245;28;45528;-82
2022/11/17 10:14:20;;;;;;;;;1.00;1.00;;;;;13.90;79.29;98722.81;5013049;28;45838;-78
2022/11/17 10:16:51;;;;;;;;;2.75;1.00;;;;;13.91;79.43;98735.13;5012308;28;45938;-83
2022/11/17 10:19:23;;;;;;;;;3.00;1.75;;;;;13.85;79.45;98722.00;5013594;28;45509;-81
2022/11/17 10:21:51;;;;;;;;;1.50;1.50;;;;;13.85;78.60;98731.69;4999023;28;45325;-82
2022/11/17 10:24:33;;;;;;;;;3.00;0.25;;;;;13.74;79.02;98717.72;4993086;28;46020;-83
2022/11/17 10:27:03;;;;;;;;;1.00;1.00;;;;;13.78;79.26;98709.75;4992806;28;45883;-79
2022/11/17 10:29:29;;;;;;;;;1.00;1.00;;;;;13.98;78.78;98709.50;4992903;28;45471;-83
2022/11/17 10:31:55;;;;;;;;;0.00;0.00;;;;;14.04;78.25;98716.50;4992230;28;45794;-82
2022/11/17 10:34:32;;;;;;;;;0.00;0.00;;;;;14.04;78.34;98706.81;4993142;28;45463;-83
2022/11/17 10:37:04;;;;;;;;;6.25;2.75;;;;;14.06;77.36;98712.09;4991296;28;46202;-83
2022/11/17 10:39:39;;;;;;;;;0.50;0.50;;;;;14.09;76.58;98722.63;4992447;28;45368;-79
2022/11/17 10:42:19;;;;;;;;;0.00;0.00;;;;;14.23;76.74;98718.00;4992942;28;45501;-79
2022/11/17 10:44:50;;;;;;;;;3.50;2.00;;;;;14.24;76.48;98698.66;4992266;28;45809;-82
2022/11/17 10:47:30;;;;;;;;;2.50;1.75;;;;;14.30;76.28;98700.34;4997404;28;45868;-83
2022/11/17 10:50:26;;;;;;;;;2.75;1.75;;;;;14.12;76.50;98677.66;5010527;28;45529;-82
2022/11/17 10:52:53;;;;;;;;;2.00;2.00;;;;;14.10;75.42;98704.09;5009074;28;45789;-83
2022/11/17 10:55:22;;;;;;;;;1.75;1.25;;;;;14.24;76.12;98698.66;5011364;28;45927;-84
2022/11/17 10:57:52;;;;;;;;;1.00;1.00;;;;;14.38;76.14;98696.69;5005684;28;45860;-83
2022/11/17 11:00:35;;;;;;;;;3.25;2.00;;;;;14.42;76.04;98663.16;5011049;28;45501;-80
2022/11/17 11:03:17;;;;;;;;;2.00;1.25;;;;;14.65;76.08;98678.72;5011261;28;45503;-79
2022/11/17 11:06:25;;;;;;;;;1.75;1.25;;;;;14.81;75.80;98688.16;5009823;28;45786;-79
2022/11/17 11:09:10;;;;;;;;;2.00;1.25;;;;;14.78;75.18;98690.88;4980118;28;45873;-83
2022/11/17 11:11:41;;;;;;;;;3.00;2.00;;;;;14.80;74.75;98694.34;5011744;28;45464;-82
2022/11/17 11:14:25;;;;;;;;;2.00;2.00;;;;;14.80;74.32;98683.75;5012389;28;45578;-83
2022/11/17 11:16:51;;;;;;;;;1.00;1.00;;;;;14.77;74.75;98683.81;5010658;28;46081;-82
2022/11/17 11:19:18;;;;;;;;;1.00;0.50;;;;;14.76;74.35;98676.78;5011647;28;45724;-83
2022/11/17 11:21:56;;;;;;;;;1.25;1.25;;;;;14.74;74.13;98683.88;5008081;28;45810;-81
2022/11/17 11:24:30;;;;;;;;;2.50;2.25;;;;;14.64;73.98;98684.91;5009965;28;45605;-82
2022/11/17 11:27:19;;;;;;;;;1.00;1.00;;;;;14.49;73.42;98664.00;5010513;28;46649;-80
2022/11/17 11:30:01;;;;;;;;;0.25;0.00;;;;;14.39;72.68;98665.84;5001477;28;45773;-81
2022/11/17 11:32:58;;;;;;;;;0.00;0.00;;;;;14.23;73.05;98673.09;4991850;28;45384;-80
2022/11/17 11:35:38;;;;;;;;;1.00;1.00;;;;;14.24;73.59;98685.44;5002433;28;45351;-83
2022/11/17 11:38:15;;;;;;;;;1.00;1.00;;;;;14.18;73.36;98694.28;5007720;28;46226;-83
2022/11/17 11:40:49;;;;;;;;;2.00;1.00;;;;;14.04;73.41;98671.59;5009818;28;45918;-84
2022/11/17 11:43:52;;;;;;;;;1.00;1.00;;;;;14.08;73.84;98695.31;5009252;28;45558;-83
2022/11/17 11:46:35;;;;;;;;;1.00;1.00;;;;;14.07;73.49;98692.69;5009600;28;45794;-81
2022/11/17 11:49:12;;;;;;;;;1.75;1.00;;;;;14.06;73.54;98681.25;5011134;28;46091;-82
2022/11/17 11:51:38;;;;;;;;;1.00;0.75;;;;;14.08;73.09;98682.09;5011201;28;45482;-81
2022/11/17 11:54:26;;;;;;;;;1.50;1.50;;;;;14.05;73.27;98683.94;5010992;28;45532;-79
2022/11/17 11:56:52;;;;;;;;;1.25;0.75;;;;;14.19;73.82;98681.97;5010071;28;45645;-83
2022/11/17 11:59:20;;;;;;;;;2.75;1.00;;;;;14.10;73.57;98643.34;5010844;28;45894;-79
2022/11/17 12:02:11;;;;;;;;;2.00;2.00;;;;;14.48;73.46;98675.44;5011136;28;45324;-82
2022/11/17 12:04:43;;;;;;;;;2.00;1.00;;;;;14.63;72.70;98680.50;4978483;28;45521;-79
2022/11/17 12:07:33;;;;;;;;;1.00;0.00;;;;;14.66;71.68;98680.47;5010204;28;45415;-81
2022/11/17 12:10:01;;;;;;;;;0.50;0.50;;;;;14.63;70.86;98672.56;5013564;28;45528;-84
2022/11/17 12:12:37;;;;;;;;;0.50;0.00;;;;;14.74;71.58;98675.06;5014180;28;45372;-81
2022/11/17 12:15:34;;;;;;;;;0.25;0.25;;;;;14.91;70.58;98696.81;5014482;28;45684;-78
2022/11/17 12:18:29;;;;;;;;;1.00;0.00;;;;;14.84;71.04;98669.59;4994456;28;45511;-79
2022/11/17 12:20:54;;;;;;;;;2.00;0.25;;;;;14.95;71.09;98695.88;4994587;28;45440;-79
2022/11/17 12:23:22;;;;;;;;;2.67;1.67;;;;;14.92;70.26;98698.56;4993983;28;45561;-79
2022/11/17 12:25:55;;;;;;;;;0.00;0.00;;;;;14.90;70.29;98690.66;4993922;28;45882;-79
2022/11/17 12:28:27;;;;;;;;;2.00;1.00;;;;;15.15;70.57;98701.72;4995233;28;45715;-79
2022/11/17 12:30:55;;;;;;;;;1.00;0.00;;;;;15.38;70.48;98697.81;4994385;28;45339;-82
2022/11/17 12:33:22;;;;;;;;;0.50;0.50;;;;;15.82;69.22;98704.09;4995173;28;45423;-78
2022/11/17 12:36:15;;;;;;;;;0.00;0.00;;;;;16.09;68.70;98692.91;4995090;28;46395;-81
2022/11/17 12:38:40;;;;;;;;;1.00;0.00;;;;;16.21;67.68;98695.34;4987925;28;45377;-82
2022/11/17 12:41:06;;;;;;;;;0.75;0.00;;;;;16.18;67.48;98697.16;4992905;28;46083;-82
2022/11/17 12:43:33;;;;;;;;;0.00;0.00;;;;;16.55;66.09;98689.31;4993785;28;45427;-79
2022/11/17 12:46:02;;;;;;;;;0.00;0.00;;;;;17.68;65.62;98691.78;4994218;28;45406;-81
2022/11/17 12:48:35;;;;;;;;;1.25;0.50;;;;;18.35;60.64;98696.16;5006297;28;45532;-79
2022/11/17 12:51:25;;;;;;;;;0.00;0.00;;;;;18.97;60.76;98675.59;5014562;28;45521;-81
2022/11/17 12:54:04;;;;;;;;;2.50;1.00;;;;;18.63;59.96;98683.75;4994838;28;45434;-80
2022/11/17 12:56:48;;;;;;;;;1.00;0.00;;;;;17.85;58.36;98672.78;5004187;28;45629;-82
2022/11/17 12:59:55;;;;;;;;;0.75;0.75;;;;;17.67;60.86;98698.03;5014513;28;45540;-81
2022/11/17 13:02:46;;;;;;;;;0.25;0.00;;;;;18.30;59.84;98667.03;4975769;28;45570;-79
2022/11/17 13:05:19;;;;;;;;;1.00;1.00;;;;;18.23;60.01;98681.44;4995116;28;45627;-81
2022/11/17 13:07:44;;;;;;;;;1.00;1.00;;;;;17.90;59.84;98691.25;4994094;28;45529;-83
2022/11/17 13:10:28;;;;;;;;;1.00;1.00;;;;;17.62;59.93;98694.63;5014648;28;45479;-79
2022/11/17 13:13:09;;;;;;;;;0.00;0.00;;;;;17.18;59.94;98690.47;5013844;28;46943;-81
2022/11/17 13:15:35;;;;;;;;;0.25;0.00;;;;;17.41;60.85;98701.38;5013405;28;45500;-79
2022/11/17 13:18:01;;;;;;;;;0.00;0.00;;;;;17.28;61.15;98705.25;5012924;28;45553;-79
2022/11/17 13:20:28;;;;;;;;;1.00;0.75;;;;;17.06;60.48;98682.81;5014151;28;45563;-79
2022/11/17 13:23:24;;;;;;;;;0.00;0.00;;;;;17.16;60.96;98709.09;5013858;28;46583;-81
2022/11/17 13:26:09;;;;;;;;;0.25;0.00;;;;;17.60;60.76;98712.41;5008382;28;45483;-82
2022/11/17 13:28:34;;;;;;;;;2.00;1.50;;;;;17.46;60.51;98709.22;5012008;28;45590;-82
2022/11/17 13:31:00;;;;;;;;;0.00;0.00;;;;;17.49;61.57;98714.47;5012882;28;45896;-82
2022/11/17 13:33:27;;;;;;;;;0.00;0.00;;;;;17.66;61.04;98708.69;5012793;28;46131;-83
2022/11/17 13:36:06;;;;;;;;;0.25;0.00;;;;;17.27;60.18;98708.81;5012591;28;45924;-82
2022/11/17 13:38:32;;;;;;;;;1.00;1.00;;;;;16.71;60.74;98681.84;5013798;28;45391;-82
2022/11/17 13:40:58;;;;;;;;;1.75;1.00;;;;;16.42;61.15;98709.03;5013724;28;45686;-79
2022/11/17 13:43:27;;;;;;;;;1.00;1.00;;;;;16.17;62.36;98714.84;5013622;28;45513;-78
2022/11/17 13:45:53;;;;;;;;;0.25;0.25;;;;;15.98;62.14;98721.44;5011963;28;45925;-83
2022/11/17 13:48:42;;;;;;;;;0.00;0.00;;;;;15.92;63.30;98727.72;5014153;28;45461;-81
2022/11/17 13:51:23;;;;;;;;;1.00;0.00;;;;;15.86;63.51;98725.19;5013870;28;45526;-79
2022/11/17 13:54:03;;;;;;;;;1.00;1.00;;;;;15.83;63.75;98729.66;5013469;28;45326;-82